Time;durP1;ratioP1;P1;durP2;ratioP2;P2;SDS_P1;SDS_P2;PMS_P1;PMS_P2;Temp;Humidity;BMP_temperature;BMP_pressure;BME280_temperature;BME280_humidity;BME280_pressure;Samples;Min_cycle;Max_cycle;Signal;HPM_P1;HPM_P2
2023/09/28 00:00:38;;;;;;;14.38;2.15;;;16.80;99.90;;;;;;5072442;28;20075;-56
2023/09/28 00:03:04;;;;;;;15.15;2.25;;;16.50;99.90;;;;;;5072369;28;20051;-56
2023/09/28 00:05:30;;;;;;;23.25;2.88;;;16.90;99.90;;;;;;5072105;28;20020;-58
2023/09/28 00:07:55;;;;;;;15.63;2.95;;;17.90;99.90;;;;;;5072203;28;20090;-51
2023/09/28 00:10:21;;;;;;;22.20;2.88;;;16.90;99.90;;;;;;5072331;28;20033;-50
2023/09/28 00:12:49;;;;;;;6.57;1.77;;;16.90;99.90;;;;;;5072158;28;20021;-57
2023/09/28 00:15:15;;;;;;;14.93;2.45;;;17.20;99.90;;;;;;5071939;28;20017;-42
2023/09/28 00:17:42;;;;;;;10.63;2.47;;;17.10;99.90;;;;;;5072030;28;20028;-42
2023/09/28 00:20:13;;;;;;;10.52;1.75;;;17.00;99.90;;;;;;5071782;28;20028;-41
2023/09/28 00:22:41;;;;;;;10.57;1.98;;;16.80;99.90;;;;;;5071805;28;20123;-54
2023/09/28 00:25:09;;;;;;;10.52;2.08;;;18.70;99.90;;;;;;5072113;28;20071;-58
2023/09/28 00:27:36;;;;;;;20.85;2.58;;;16.80;99.90;;;;;;5071773;28;20029;-61
2023/09/28 00:30:03;;;;;;;11.75;2.03;;;16.70;99.90;;;;;;5071753;28;20536;-56
2023/09/28 00:32:29;;;;;;;12.35;2.65;;;18.10;99.90;;;;;;5071669;28;20082;-60
2023/09/28 00:34:55;;;;;;;20.73;2.53;;;17.70;99.90;;;;;;5071629;28;20021;-56
2023/09/28 00:37:20;;;;;;;11.82;2.30;;;16.50;99.90;;;;;;5071329;28;20025;-57
2023/09/28 00:39:48;;;;;;;12.13;2.03;;;16.50;99.90;;;;;;5071477;28;20032;-56
2023/09/28 00:42:14;;;;;;;16.02;2.58;;;16.50;99.90;;;;;;5070220;28;20064;-50
2023/09/28 00:44:39;;;;;;;20.63;2.55;;;17.40;99.90;;;;;;5071378;28;20048;-51
2023/09/28 00:47:05;;;;;;;11.45;2.72;;;16.30;99.90;;;;;;5071512;28;20034;-58
2023/09/28 00:49:31;;;;;;;11.07;2.33;;;16.40;99.90;;;;;;5071107;28;20016;-54
2023/09/28 00:51:57;;;;;;;15.05;2.50;;;16.30;99.90;;;;;;5071254;28;20029;-41
2023/09/28 00:54:23;;;;;;;10.50;1.60;;;16.30;99.90;;;;;;5070599;28;20036;-43
2023/09/28 00:56:50;;;;;;;14.82;2.47;;;18.20;99.90;;;;;;5071270;28;20024;-41
2023/09/28 00:59:15;;;;;;;19.40;2.47;;;15.60;99.90;;;;;;5071398;28;20021;-56
2023/09/28 01:01:42;;;;;;;15.88;2.85;;;16.80;99.90;;;;;;5070693;28;20041;-52
2023/09/28 01:04:07;;;;;;;13.02;2.17;;;18.70;99.90;;;;;;5070994;28;20566;-57
2023/09/28 01:06:35;;;;;;;15.85;2.03;;;13.60;99.90;;;;;;5070928;28;20056;-49
2023/09/28 01:09:01;;;;;;;13.15;1.90;;;16.10;99.90;;;;;;5071029;28;20107;-58
2023/09/28 01:11:28;;;;;;;17.05;2.50;;;16.10;99.90;;;;;;5071001;28;20122;-58
2023/09/28 01:13:54;;;;;;;8.77;1.67;;;16.80;99.90;;;;;;5070773;28;20048;-60
2023/09/28 01:16:19;;;;;;;14.45;2.00;;;16.30;99.90;;;;;;5070782;28;20092;-61
2023/09/28 01:18:45;;;;;;;18.00;2.80;;;17.30;99.90;;;;;;5070832;28;20138;-52
2023/09/28 01:21:11;;;;;;;11.43;1.63;;;15.90;99.90;;;;;;5070596;28;20021;-64
2023/09/28 01:23:38;;;;;;;18.42;1.85;;;15.90;99.90;;;;;;5069966;28;20544;-54
2023/09/28 01:26:03;;;;;;;15.45;1.80;;;16.00;99.90;;;;;;5070087;28;20102;-51
2023/09/28 01:28:29;;;;;;;10.00;2.45;;;15.90;99.90;;;;;;5070388;28;20060;-54
2023/09/28 01:30:55;;;;;;;12.27;1.92;;;16.70;99.90;;;;;;5070765;28;20025;-56
2023/09/28 01:33:20;;;;;;;10.25;1.92;;;15.90;99.90;;;;;;5070458;28;20025;-57
2023/09/28 01:35:46;;;;;;;7.32;1.83;;;15.90;99.90;;;;;;5070455;28;20455;-56
2023/09/28 01:38:38;;;;;;;15.80;2.40;;;16.90;99.90;;;;;;5070479;28;20035;-53
2023/09/28 01:41:04;;;;;;;12.90;1.92;;;16.80;99.90;;;;;;5070262;28;20546;-56
2023/09/28 01:43:29;;;;;;;13.43;2.30;;;17.50;99.90;;;;;;5070300;28;20068;-45
2023/09/28 01:45:55;;;;;;;13.43;1.80;;;16.50;99.90;;;;;;5070068;28;20024;-60
2023/09/28 01:48:22;;;;;;;14.13;2.55;;;;;;;;;;5070536;28;20028;-49
2023/09/28 01:50:48;;;;;;;9.63;1.38;;;15.20;99.90;;;;;;5070412;28;20029;-44
2023/09/28 01:53:13;;;;;;;9.50;1.73;;;16.10;99.90;;;;;;5070417;28;20043;-52
2023/09/28 01:55:39;;;;;;;16.30;2.22;;;16.10;99.90;;;;;;5070249;28;20031;-55
2023/09/28 01:58:07;;;;;;;11.93;1.92;;;16.00;99.90;;;;;;5070073;28;20116;-54
2023/09/28 02:00:34;;;;;;;10.73;2.08;;;17.10;99.90;;;;;;5069879;28;20020;-46
2023/09/28 02:03:03;;;;;;;14.77;2.80;;;16.00;99.90;;;;;;5069938;28;20028;-55
2023/09/28 02:05:32;;;;;;;11.43;1.83;;;16.00;99.90;;;;;;5070167;28;20028;-52
2023/09/28 02:08:05;;;;;;;9.52;2.00;;;16.00;99.90;;;;;;5068930;28;20423;-40
2023/09/28 02:10:32;;;;;;;8.63;1.52;;;16.10;99.90;;;;;;5070148;28;20081;-40
2023/09/28 02:12:57;;;;;;;5.93;1.33;;;14.40;99.90;;;;;;5069881;28;20436;-44
2023/09/28 02:15:23;;;;;;;21.65;3.00;;;15.90;99.90;;;;;;5069872;28;20020;-41
2023/09/28 02:17:49;;;;;;;11.27;1.67;;;15.90;99.90;;;;;;5070068;28;20028;-41
2023/09/28 02:20:16;;;;;;;6.88;1.67;;;15.80;99.90;;;;;;5069920;28;20020;-44
2023/09/28 02:22:46;;;;;;;11.65;1.60;;;15.80;99.90;;;;;;5070073;28;20055;-40
2023/09/28 02:25:17;;;;;;;14.80;1.60;;;15.80;99.90;;;;;;5069746;28;20020;-49
2023/09/28 02:27:47;;;;;;;6.95;1.55;;;16.00;99.90;;;;;;5069922;28;20072;-47
2023/09/28 02:30:17;;;;;;;15.68;2.60;;;15.70;99.90;;;;;;5069838;28;20052;-59
2023/09/28 02:32:43;;;;;;;12.88;2.47;;;16.40;99.90;;;;;;5069754;28;20094;-57
2023/09/28 02:35:11;;;;;;;15.82;1.90;;;16.10;99.90;;;;;;5069986;28;20016;-55
2023/09/28 02:37:37;;;;;;;8.75;2.00;;;15.60;99.90;;;;;;5069956;28;20392;-59
2023/09/28 02:40:05;;;;;;;13.13;1.83;;;15.60;99.90;;;;;;5069710;28;20025;-40
2023/09/28 02:42:31;;;;;;;7.53;1.83;;;15.60;99.90;;;;;;5069480;28;20025;-42
2023/09/28 02:44:57;;;;;;;10.52;1.60;;;15.50;99.90;;;;;;5069862;28;20111;-39
2023/09/28 02:47:23;;;;;;;13.93;2.05;;;14.80;99.90;;;;;;5068293;28;20028;-43
2023/09/28 02:49:49;;;;;;;12.85;2.25;;;15.50;99.90;;;;;;5069808;28;20013;-43
2023/09/28 02:52:16;;;;;;;11.88;2.80;;;15.50;99.90;;;;;;5069468;28;20361;-40
2023/09/28 02:54:41;;;;;;;13.43;1.80;;;15.30;99.90;;;;;;5069366;28;20016;-46
2023/09/28 02:57:07;;;;;;;17.33;2.70;;;15.30;99.90;;;;;;5069762;28;20032;-48
2023/09/28 02:59:33;;;;;;;9.75;1.58;;;15.50;99.90;;;;;;5069559;28;20032;-53
2023/09/28 03:01:59;;;;;;;10.45;1.58;;;15.50;99.90;;;;;;5069245;28;20053;-55
2023/09/28 03:04:24;;;;;;;16.40;2.17;;;15.50;99.90;;;;;;5069315;28;20103;-54
2023/09/28 03:06:52;;;;;;;15.75;1.70;;;15.50;99.90;;;;;;5069569;28;20163;-42
2023/09/28 03:09:19;;;;;;;11.55;2.28;;;15.50;99.90;;;;;;5069202;28;20012;-42
2023/09/28 03:11:45;;;;;;;5.05;1.63;;;15.50;99.90;;;;;;5069699;28;20033;-41
2023/09/28 03:14:11;;;;;;;8.25;1.70;;;15.50;99.90;;;;;;5069423;28;20111;-39
2023/09/28 03:16:38;;;;;;;10.63;1.98;;;16.30;99.90;;;;;;5070791;28;20108;-53
2023/09/28 03:19:04;;;;;;;6.93;1.73;;;15.60;99.90;;;;;;5072952;28;20024;-42
2023/09/28 03:21:30;;;;;;;6.00;1.45;;;15.70;99.90;;;;;;5072673;28;20057;-39
2023/09/28 03:24:01;;;;;;;9.27;1.30;;;15.80;99.90;;;;;;5072976;28;20029;-39
2023/09/28 03:26:30;;;;;;;11.38;1.83;;;14.40;99.90;;;;;;5072765;28;20021;-46
2023/09/28 03:28:59;;;;;;;7.10;1.88;;;15.50;99.90;;;;;;5072955;28;20028;-54
2023/09/28 03:31:27;;;;;;;11.90;2.40;;;15.90;99.90;;;;;;5073021;28;20094;-54
2023/09/28 03:33:54;;;;;;;6.75;1.42;;;16.30;99.90;;;;;;5072791;28;20032;-52
2023/09/28 03:36:19;;;;;;;19.23;2.22;;;15.90;99.90;;;;;;5072569;28;20021;-56
2023/09/28 03:38:46;;;;;;;7.55;1.45;;;18.20;99.90;;;;;;5072467;28;20043;-57
2023/09/28 03:41:12;;;;;;;9.85;1.42;;;15.30;99.90;;;;;;5072599;28;20031;-60
2023/09/28 03:43:38;;;;;;;8.88;1.77;;;15.90;99.90;;;;;;5072427;28;20376;-53
2023/09/28 03:46:04;;;;;;;7.88;1.70;;;16.20;99.90;;;;;;5072213;28;20031;-43
2023/09/28 03:48:31;;;;;;;8.40;1.60;;;16.70;99.90;;;;;;5072626;28;20194;-40
2023/09/28 03:50:57;;;;;;;11.55;2.00;;;16.20;99.90;;;;;;5072351;28;20672;-45
2023/09/28 03:53:23;;;;;;;13.07;1.63;;;16.00;99.90;;;;;;5072668;28;20562;-39
2023/09/28 03:55:49;;;;;;;11.00;1.60;;;16.20;99.90;;;;;;5072304;28;20021;-39
2023/09/28 03:58:15;;;;;;;8.20;1.10;;;16.60;99.90;;;;;;5072297;28;20025;-40
2023/09/28 04:00:41;;;;;;;9.82;1.30;;;16.10;99.90;;;;;;5072403;28;20028;-45
2023/09/28 04:03:07;;;;;;;11.57;2.05;;;16.70;99.90;;;;;;5072316;28;20374;-60
2023/09/28 04:05:33;;;;;;;7.78;1.95;;;15.00;99.90;;;;;;5072263;28;20025;-55
2023/09/28 04:07:58;;;;;;;8.75;1.55;;;16.10;99.90;;;;;;5072321;28;20119;-60
2023/09/28 04:10:24;;;;;;;10.52;1.20;;;14.20;99.90;;;;;;5072171;28;20492;-49
2023/09/28 04:12:50;;;;;;;7.60;1.60;;;16.20;99.90;;;;;;5072050;28;20040;-57
2023/09/28 04:15:16;;;;;;;7.10;1.33;;;16.30;99.90;;;;;;5072166;28;20032;-59
2023/09/28 04:17:42;;;;;;;7.68;1.40;;;16.20;99.90;;;;;;5072155;28;20085;-54
2023/09/28 04:20:09;;;;;;;9.82;1.70;;;16.20;99.90;;;;;;5071875;28;20103;-47
2023/09/28 04:22:35;;;;;;;7.47;1.60;;;16.30;99.90;;;;;;5072184;28;20044;-48
2023/09/28 04:25:01;;;;;;;7.20;1.50;;;16.20;99.90;;;;;;5071928;28;20502;-58
2023/09/28 04:27:27;;;;;;;14.18;1.15;;;16.20;99.90;;;;;;5071153;28;20496;-57
2023/09/28 04:29:54;;;;;;;8.15;1.65;;;16.30;99.90;;;;;;5071591;28;20021;-62
2023/09/28 04:32:20;;;;;;;7.93;1.60;;;16.40;99.90;;;;;;5071633;28;20442;-61
2023/09/28 04:34:46;;;;;;;5.57;1.10;;;16.30;99.90;;;;;;5071687;28;20024;-58
2023/09/28 04:37:12;;;;;;;8.95;1.77;;;18.00;99.90;;;;;;5071602;28;20067;-53
2023/09/28 04:39:37;;;;;;;11.65;1.63;;;16.20;99.90;;;;;;5071844;28;20074;-56
2023/09/28 04:42:04;;;;;;;12.07;2.50;;;15.40;99.90;;;;;;5071328;28;20388;-59
2023/09/28 04:44:30;;;;;;;8.40;1.02;;;16.20;99.90;;;;;;5071322;28;20369;-56
2023/09/28 04:46:55;;;;;;;9.18;1.52;;;16.30;99.90;;;;;;5070152;28;20078;-61
2023/09/28 04:49:21;;;;;;;8.80;1.45;;;16.30;99.90;;;;;;5071118;28;20090;-42
2023/09/28 04:51:47;;;;;;;7.43;1.30;;;16.20;99.90;;;;;;5071136;28;20033;-61
2023/09/28 04:54:14;;;;;;;8.00;1.50;;;16.30;99.90;;;;;;5071085;28;20389;-44
2023/09/28 04:56:40;;;;;;;10.13;1.88;;;15.60;99.90;;;;;;5071299;28;20021;-58
2023/09/28 04:59:06;;;;;;;10.82;1.83;;;16.70;99.90;;;;;;5071263;28;20024;-55
2023/09/28 05:01:32;;;;;;;9.77;1.25;;;16.20;99.90;;;;;;5071173;28;20111;-56
2023/09/28 05:03:57;;;;;;;7.60;1.13;;;16.00;99.90;;;;;;5071129;28;20037;-58
2023/09/28 05:06:23;;;;;;;15.38;1.45;;;16.20;99.90;;;;;;5071040;28;20023;-53
2023/09/28 05:08:49;;;;;;;8.73;1.30;;;16.20;99.90;;;;;;5071406;28;20036;-55
2023/09/28 05:11:15;;;;;;;5.30;1.13;;;16.20;99.90;;;;;;5071157;28;20025;-56
2023/09/28 05:13:42;;;;;;;4.30;1.30;;;16.20;99.90;;;;;;5071014;28;20016;-53
2023/09/28 05:16:07;;;;;;;8.95;1.20;;;16.20;99.90;;;;;;5070942;28;20496;-57
2023/09/28 05:18:35;;;;;;;4.57;0.80;;;16.20;99.90;;;;;;5070885;28;20024;-57
2023/09/28 05:21:01;;;;;;;5.88;1.60;;;16.10;99.90;;;;;;5070947;28;20028;-39
2023/09/28 05:23:26;;;;;;;3.45;0.88;;;16.10;99.90;;;;;;5070617;28;20024;-44
2023/09/28 05:25:52;;;;;;;8.60;1.35;;;16.00;99.90;;;;;;5070683;28;20477;-40
2023/09/28 05:28:17;;;;;;;5.47;1.30;;;16.00;99.90;;;;;;5070566;28;20024;-57
2023/09/28 05:30:43;;;;;;;10.55;1.20;;;16.10;99.90;;;;;;5070687;28;20024;-52
2023/09/28 05:33:09;;;;;;;6.57;0.85;;;16.10;99.90;;;;;;5070544;28;20465;-60
2023/09/28 05:35:34;;;;;;;7.57;1.35;;;16.10;99.90;;;;;;5070656;28;20075;-53
2023/09/28 05:38:00;;;;;;;7.65;1.33;;;15.70;99.90;;;;;;5070706;28;20497;-59
2023/09/28 05:40:25;;;;;;;4.57;0.95;;;16.00;99.90;;;;;;5070223;28;20017;-57
2023/09/28 05:42:51;;;;;;;7.50;1.38;;;16.00;99.90;;;;;;5070514;28;20057;-51
2023/09/28 05:45:17;;;;;;;5.13;1.35;;;16.00;99.90;;;;;;5069264;28;20025;-59
2023/09/28 05:47:43;;;;;;;4.90;1.58;;;16.00;99.90;;;;;;5070229;28;20060;-50
2023/09/28 05:50:08;;;;;;;5.05;0.98;;;16.00;99.90;;;;;;5070468;28;20027;-62
2023/09/28 05:52:34;;;;;;;7.60;1.20;;;16.00;99.90;;;;;;5070101;28;20434;-43
2023/09/28 05:55:01;;;;;;;2.97;0.85;;;16.00;99.90;;;;;;5070263;28;20025;-59
2023/09/28 05:57:26;;;;;;;7.30;1.27;;;16.00;99.90;;;;;;5070073;28;20370;-47
2023/09/28 05:59:52;;;;;;;13.40;1.55;;;16.00;99.90;;;;;;5070286;28;20020;-57
2023/09/28 06:02:21;;;;;;;7.57;1.35;;;16.00;99.90;;;;;;5069674;28;20102;-58
2023/09/28 06:04:47;;;;;;;4.40;0.95;;;16.00;99.90;;;;;;5064585;28;20017;-55
2023/09/28 06:07:13;;;;;;;4.82;0.93;;;16.00;99.90;;;;;;5060218;28;20025;-50
2023/09/28 06:09:39;;;;;;;6.88;1.55;;;15.90;99.90;;;;;;5102414;28;20025;-49
2023/09/28 06:12:05;;;;;;;6.40;1.27;;;15.90;99.90;;;;;;5062483;28;20043;-44
2023/09/28 06:14:31;;;;;;;3.25;0.90;;;15.90;99.90;;;;;;5060578;28;20021;-56
2023/09/28 06:16:56;;;;;;;7.60;1.45;;;15.90;99.90;;;;;;5056304;28;20091;-52
2023/09/28 06:19:22;;;;;;;7.38;1.00;;;15.90;99.90;;;;;;5062455;28;20016;-52
2023/09/28 06:21:47;;;;;;;12.13;1.50;;;15.90;99.90;;;;;;5055232;28;20017;-53
2023/09/28 06:24:13;;;;;;;5.70;1.52;;;15.90;99.90;;;;;;5060732;28;20070;-56
2023/09/28 06:26:39;;;;;;;12.05;1.88;;;15.90;99.90;;;;;;5058586;28;20013;-56
2023/09/28 06:29:05;;;;;;;4.10;0.90;;;16.00;99.90;;;;;;5057993;28;20567;-50
2023/09/28 06:31:30;;;;;;;4.75;1.30;;;16.00;99.90;;;;;;5060229;28;20111;-54
2023/09/28 06:33:56;;;;;;;7.20;1.20;;;16.00;99.90;;;;;;5066152;28;20020;-42
2023/09/28 06:36:25;;;;;;;3.90;1.10;;;16.00;99.90;;;;;;5069577;28;20028;-59
2023/09/28 06:38:51;;;;;;;10.45;1.17;;;16.00;99.90;;;;;;5067736;28;20044;-46
2023/09/28 06:41:17;;;;;;;11.10;1.48;;;16.00;99.90;;;;;;5058604;28;20078;-55
2023/09/28 06:43:43;;;;;;;6.60;1.48;;;16.00;99.90;;;;;;5053549;28;20124;-47
2023/09/28 06:46:09;;;;;;;8.65;1.23;;;16.00;99.90;;;;;;5052746;28;20021;-56
2023/09/28 06:48:35;;;;;;;6.47;1.10;;;16.00;99.90;;;;;;5056251;28;20035;-47
2023/09/28 06:51:01;;;;;;;13.43;1.48;;;16.10;99.90;;;;;;5057352;28;20040;-61
2023/09/28 06:53:27;;;;;;;6.97;1.35;;;16.10;99.90;;;;;;5061532;28;20028;-45
2023/09/28 06:55:54;;;;;;;11.55;1.83;;;16.10;99.90;;;;;;5066091;28;20028;-59
2023/09/28 06:58:20;;;;;;;8.65;1.15;;;16.10;99.90;;;;;;5068215;28;20107;-58
2023/09/28 07:00:46;;;;;;;12.48;1.48;;;15.60;99.90;;;;;;5070253;28;20136;-53
2023/09/28 07:03:12;;;;;;;9.95;1.45;;;16.20;99.90;;;;;;5070335;28;20122;-59
2023/09/28 07:05:39;;;;;;;4.40;1.35;;;16.20;99.90;;;;;;5070417;28;20063;-56
2023/09/28 07:08:05;;;;;;;4.95;1.00;;;16.20;99.90;;;;;;5067047;28;20033;-52
2023/09/28 07:10:35;;;;;;;3.80;1.50;;;16.30;99.90;;;;;;5070067;28;20405;-59
2023/09/28 07:13:03;;;;;;;7.40;1.33;;;16.20;99.90;;;;;;5064412;28;20049;-57
2023/09/28 07:15:30;;;;;;;4.70;1.10;;;16.20;99.90;;;;;;5067145;28;20074;-60
2023/09/28 07:17:56;;;;;;;14.70;1.85;;;16.20;99.90;;;;;;5066059;28;20040;-60
2023/09/28 07:20:22;;;;;;;9.25;2.08;;;16.20;99.90;;;;;;5063005;28;20025;-46
2023/09/28 07:22:48;;;;;;;8.15;1.63;;;16.20;99.90;;;;;;5067405;28;20477;-60
2023/09/28 07:25:14;;;;;;;13.77;1.73;;;16.20;99.90;;;;;;5067146;28;20056;-47
2023/09/28 07:27:41;;;;;;;14.40;1.52;;;16.30;99.90;;;;;;5067317;28;20108;-59
2023/09/28 07:30:08;;;;;;;7.47;1.35;;;16.30;99.90;;;;;;5065040;28;20018;-51
2023/09/28 07:32:34;;;;;;;10.10;1.52;;;16.30;99.90;;;;;;5064539;28;20085;-51
2023/09/28 07:35:01;;;;;;;7.40;1.08;;;16.30;99.90;;;;;;5070006;28;20123;-43
2023/09/28 07:37:29;;;;;;;6.70;1.50;;;16.30;99.90;;;;;;5072211;28;20020;-49
2023/09/28 07:39:55;;;;;;;8.27;2.03;;;16.80;99.90;;;;;;5060545;28;20028;-46
2023/09/28 07:42:20;;;;;;;3.67;1.35;;;15.60;99.90;;;;;;5057615;28;20041;-55
2023/09/28 07:44:49;;;;;;;7.32;1.48;;;16.40;99.90;;;;;;5060891;28;20032;-39
2023/09/28 07:47:15;;;;;;;8.38;1.88;;;16.40;99.90;;;;;;5066768;28;20028;-39
2023/09/28 07:49:41;;;;;;;3.50;0.95;;;16.50;99.90;;;;;;5067495;28;20025;-47
2023/09/28 07:52:10;;;;;;;7.30;1.42;;;16.50;99.90;;;;;;5067742;28;20112;-45
2023/09/28 07:54:36;;;;;;;5.50;1.58;;;16.60;99.90;;;;;;5070121;28;20024;-54
2023/09/28 07:57:05;;;;;;;7.35;1.52;;;16.70;99.90;;;;;;5065779;28;20032;-49
2023/09/28 07:59:31;;;;;;;7.70;1.13;;;16.80;99.90;;;;;;5069944;28;20020;-53
2023/09/28 08:01:57;;;;;;;4.50;1.33;;;16.80;99.90;;;;;;5068599;28;20212;-48
2023/09/28 08:04:23;;;;;;;8.15;1.40;;;16.90;99.90;;;;;;5068700;28;20131;-56
2023/09/28 08:06:49;;;;;;;6.55;1.42;;;16.90;99.90;;;;;;5070101;28;20452;-58
2023/09/28 08:09:14;;;;;;;8.15;1.63;;;17.00;99.90;;;;;;5067421;28;20084;-51
2023/09/28 08:11:41;;;;;;;10.95;1.92;;;16.60;99.90;;;;;;5069959;28;20047;-56
2023/09/28 08:14:09;;;;;;;7.50;1.45;;;17.60;99.90;;;;;;5067382;28;20043;-46
2023/09/28 08:16:35;;;;;;;9.98;1.70;;;17.00;99.90;;;;;;5069755;28;20062;-50
2023/09/28 08:19:02;;;;;;;7.72;1.38;;;17.00;99.90;;;;;;5068249;28;20044;-55
2023/09/28 08:21:28;;;;;;;5.35;1.73;;;16.90;99.90;;;;;;5068895;28;20103;-54
2023/09/28 08:23:55;;;;;;;7.53;1.25;;;16.90;99.90;;;;;;5069530;28;20400;-57
2023/09/28 08:26:21;;;;;;;8.98;1.38;;;16.90;99.90;;;;;;5066983;28;20078;-57
2023/09/28 08:28:46;;;;;;;7.25;1.23;;;16.90;99.90;;;;;;5069381;28;20016;-40
2023/09/28 08:31:12;;;;;;;14.75;1.85;;;17.40;99.90;;;;;;5058550;28;20074;-51
2023/09/28 08:33:38;;;;;;;11.82;1.50;;;17.00;99.90;;;;;;5066345;28;20381;-57
2023/09/28 08:36:08;;;;;;;5.25;1.27;;;16.60;99.90;;;;;;5064332;28;20025;-55
2023/09/28 08:38:34;;;;;;;9.10;1.67;;;17.10;99.90;;;;;;5052761;28;20033;-57
2023/09/28 08:41:01;;;;;;;5.05;1.40;;;17.90;99.90;;;;;;5056989;28;20035;-54
2023/09/28 08:43:31;;;;;;;6.43;1.08;;;17.00;99.90;;;;;;5071008;28;20055;-54
2023/09/28 08:46:00;;;;;;;7.32;1.60;;;17.00;99.90;;;;;;5070887;28;20431;-45
2023/09/28 08:48:28;;;;;;;6.20;1.33;;;17.70;99.90;;;;;;5071235;28;20059;-57
2023/09/28 08:51:08;;;;;;;16.55;2.08;;;15.50;99.90;;;;;;5071227;28;20491;-44
2023/09/28 08:53:37;;;;;;;9.88;1.60;;;17.20;99.90;;;;;;5071142;28;20389;-57
2023/09/28 08:56:04;;;;;;;7.90;2.58;;;16.80;99.90;;;;;;5063743;28;20024;-57
2023/09/28 08:58:35;;;;;;;12.00;1.75;;;16.30;99.90;;;;;;5051910;28;20029;-53
2023/09/28 09:01:01;;;;;;;7.15;1.40;;;16.20;99.90;;;;;;5051565;28;20409;-54
2023/09/28 09:03:28;;;;;;;8.80;1.52;;;17.40;99.90;;;;;;5051546;28;20079;-57
2023/09/28 09:05:55;;;;;;;10.50;1.20;;;17.00;99.90;;;;;;5050805;28;20101;-53
2023/09/28 09:08:22;;;;;;;5.93;1.30;;;16.50;99.90;;;;;;5051507;28;20029;-56
2023/09/28 09:10:51;;;;;;;5.95;1.42;;;17.10;99.90;;;;;;5051715;28;20437;-57
2023/09/28 09:13:18;;;;;;;18.15;2.97;;;15.30;99.90;;;;;;5056843;28;20443;-52
2023/09/28 09:15:44;;;;;;;8.00;1.33;;;17.20;99.90;;;;;;5061773;28;20484;-49
2023/09/28 09:18:18;;;;;;;7.30;1.45;;;17.40;99.90;;;;;;5059970;28;20405;-58
2023/09/28 09:20:48;;;;;;;9.35;1.90;;;16.90;99.90;;;;;;5064829;28;20025;-42
2023/09/28 09:23:14;;;;;;;8.25;1.52;;;17.60;99.90;;;;;;5062921;28;20102;-59
2023/09/28 09:25:42;;;;;;;10.00;1.80;;;18.10;99.90;;;;;;5065932;28;20522;-52
2023/09/28 09:28:08;;;;;;;10.15;1.67;;;17.60;99.90;;;;;;5062671;28;20078;-55
2023/09/28 09:30:37;;;;;;;6.00;1.30;;;16.70;99.90;;;;;;5066748;28;20025;-44
2023/09/28 09:33:09;;;;;;;9.57;1.52;;;17.70;99.90;;;;;;5066448;28;20028;-54
2023/09/28 09:35:38;;;;;;;10.30;2.25;;;17.80;99.90;;;;;;5070381;28;20043;-51
2023/09/28 09:38:04;;;;;;;14.52;1.90;;;16.70;99.90;;;;;;5070654;28;20042;-55
2023/09/28 09:40:31;;;;;;;10.38;1.90;;;18.20;99.90;;;;;;5070298;28;20107;-44
2023/09/28 09:43:08;;;;;;;11.93;1.50;;;18.30;99.90;;;;;;5070462;28;20028;-60
2023/09/28 09:45:40;;;;;;;6.80;1.55;;;18.60;99.90;;;;;;5070335;28;20024;-50
2023/09/28 09:48:09;;;;;;;8.40;1.70;;;18.80;99.90;;;;;;5069745;28;20107;-51
2023/09/28 09:50:36;;;;;;;10.35;1.77;;;18.70;99.90;;;;;;5068227;28;20358;-54
2023/09/28 09:53:05;;;;;;;9.90;2.60;;;18.80;99.90;;;;;;5068505;28;20024;-48
2023/09/28 09:55:32;;;;;;;7.78;1.75;;;18.60;99.90;;;;;;5068902;28;20508;-58
2023/09/28 09:58:01;;;;;;;7.82;1.77;;;19.80;99.90;;;;;;5069611;28;20597;-50
2023/09/28 10:00:33;;;;;;;9.07;1.75;;;18.40;99.90;;;;;;5069448;28;20128;-52
2023/09/28 10:03:00;;;;;;;10.90;1.83;;;15.50;99.90;;;;;;5069648;28;20496;-57
2023/09/28 10:05:27;;;;;;;10.00;1.52;;;18.10;99.90;;;;;;5070338;28;20024;-52
2023/09/28 10:07:56;;;;;;;12.57;1.50;;;16.70;99.90;;;;;;5069760;28;20028;-53
2023/09/28 10:10:23;;;;;;;10.60;1.85;;;18.10;99.90;;;;;;5070328;28;20039;-56
2023/09/28 10:12:50;;;;;;;7.00;2.03;;;17.80;99.90;;;;;;5064780;28;20064;-46
2023/09/28 10:15:16;;;;;;;12.38;1.95;;;18.10;99.90;;;;;;5060258;28;20017;-51
2023/09/28 10:17:44;;;;;;;9.75;1.83;;;18.50;99.90;;;;;;5054499;28;20029;-48
2023/09/28 10:20:12;;;;;;;16.40;2.03;;;19.10;99.90;;;;;;5063853;28;20025;-41
2023/09/28 10:22:41;;;;;;;7.53;1.60;;;20.70;99.90;;;;;;5052813;28;20033;-44
2023/09/28 10:25:07;;;;;;;12.45;2.40;;;20.40;99.90;;;;;;5053242;28;20032;-39
2023/09/28 10:27:34;;;;;;;10.15;2.25;;;17.50;99.90;;;;;;5055652;28;20025;-56
2023/09/28 10:30:21;;;;;;;9.55;1.80;;;20.90;99.90;;;;;;5068603;28;20025;-55
2023/09/28 10:32:50;;;;;;;9.63;1.95;;;19.60;99.90;;;;;;5071522;28;20524;-58
2023/09/28 10:35:31;;;;;;;5.63;1.35;;;21.50;99.90;;;;;;5073956;28;20489;-51
2023/09/28 10:38:19;;;;;;;8.75;1.60;;;19.50;99.90;;;;;;5073985;28;20039;-42
2023/09/28 10:40:57;;;;;;;6.72;1.88;;;20.20;99.90;;;;;;5074099;28;20487;-57
2023/09/28 10:43:32;;;;;;;12.88;2.00;;;19.20;99.90;;;;;;5073877;28;20037;-59
2023/09/28 10:46:02;;;;;;;10.63;1.50;;;19.10;99.90;;;;;;5074045;28;20024;-49
2023/09/28 10:48:32;;;;;;;12.75;2.00;;;19.10;99.90;;;;;;5074108;28;20024;-56
2023/09/28 10:50:58;;;;;;;10.88;2.28;;;19.10;99.90;;;;;;5073655;28;20028;-50
2023/09/28 10:53:24;;;;;;;6.90;1.85;;;19.20;99.90;;;;;;5073297;28;20046;-56
2023/09/28 10:55:50;;;;;;;8.93;1.27;;;19.30;99.90;;;;;;5071494;28;20024;-52
2023/09/28 10:58:16;;;;;;;10.50;2.00;;;19.50;99.90;;;;;;5071656;28;20020;-49
2023/09/28 11:00:42;;;;;;;11.55;1.60;;;19.60;99.90;;;;;;5071729;28;20140;-57
2023/09/28 11:03:07;;;;;;;7.95;1.52;;;19.50;99.90;;;;;;5069620;28;20116;-47
2023/09/28 11:05:33;;;;;;;9.77;1.63;;;19.10;99.90;;;;;;5071535;28;20035;-59
2023/09/28 11:08:04;;;;;;;14.13;2.08;;;19.00;99.90;;;;;;5069655;28;20485;-61
2023/09/28 11:10:29;;;;;;;8.45;2.03;;;18.90;99.90;;;;;;5062522;28;20033;-54
2023/09/28 11:12:55;;;;;;;7.30;1.50;;;18.90;99.90;;;;;;5060174;28;20209;-51
2023/09/28 11:15:22;;;;;;;11.88;1.58;;;18.90;99.90;;;;;;5070265;28;20131;-51
2023/09/28 11:17:50;;;;;;;11.90;1.85;;;18.70;99.90;;;;;;5064480;28;20021;-58
2023/09/28 11:20:16;;;;;;;6.47;1.17;;;18.70;99.90;;;;;;5059572;28;20056;-47
2023/09/28 11:22:41;;;;;;;4.03;1.40;;;18.50;99.90;;;;;;5064705;28;20036;-57
2023/09/28 11:25:08;;;;;;;8.50;2.08;;;17.00;99.90;;;;;;5059908;28;20045;-48
2023/09/28 11:27:34;;;;;;;11.52;1.40;;;18.40;99.90;;;;;;5062746;28;20017;-54
2023/09/28 11:30:02;;;;;;;5.88;1.08;;;18.20;99.90;;;;;;5061939;28;20184;-58
2023/09/28 11:32:29;;;;;;;9.23;1.52;;;18.30;99.90;;;;;;5064689;28;20023;-54
2023/09/28 11:34:54;;;;;;;9.95;1.98;;;18.20;99.90;;;;;;5072955;28;20038;-55
2023/09/28 11:37:23;;;;;;;12.88;2.25;;;18.70;99.90;;;;;;5072110;28;20099;-60
2023/09/28 11:39:49;;;;;;;9.13;1.50;;;16.30;99.90;;;;;;5072679;28;20067;-46
2023/09/28 11:42:14;;;;;;;9.63;1.85;;;17.90;99.90;;;;;;5072602;28;20032;-49
2023/09/28 11:44:42;;;;;;;10.38;1.85;;;18.40;99.90;;;;;;5072789;28;20020;-52
2023/09/28 11:47:08;;;;;;;13.07;1.70;;;18.50;99.90;;;;;;5072350;28;20111;-55
2023/09/28 11:49:37;;;;;;;7.25;1.50;;;18.60;99.90;;;;;;5072611;28;20095;-47
2023/09/28 11:52:03;;;;;;;11.90;1.85;;;17.80;99.90;;;;;;5072583;28;20037;-47
2023/09/28 11:54:29;;;;;;;5.10;1.10;;;18.30;99.90;;;;;;5072342;28;20033;-55
2023/09/28 11:56:57;;;;;;;8.93;1.30;;;18.30;99.90;;;;;;5072120;28;20021;-49
2023/09/28 11:59:23;;;;;;;6.22;1.73;;;18.90;99.90;;;;;;5058402;28;20025;-59
2023/09/28 12:01:51;;;;;;;8.25;1.80;;;18.30;99.90;;;;;;5055532;28;20048;-53
2023/09/28 12:04:17;;;;;;;7.67;1.87;;;19.20;99.90;;;;;;5058942;28;20038;-49
2023/09/28 12:06:43;;;;;;;12.00;1.98;;;18.40;99.90;;;;;;5055653;28;20096;-55
2023/09/28 12:09:10;;;;;;;6.75;1.27;;;18.20;99.90;;;;;;5058556;28;20430;-53
2023/09/28 12:11:39;;;;;;;8.05;1.45;;;18.60;99.90;;;;;;5063734;28;20033;-59
2023/09/28 12:14:05;;;;;;;12.57;2.55;;;17.10;99.90;;;;;;5064544;28;20032;-54
2023/09/28 12:16:31;;;;;;;5.63;1.60;;;18.60;99.90;;;;;;5057019;28;20086;-55
2023/09/28 12:18:56;;;;;;;5.63;1.30;;;20.00;99.90;;;;;;5055720;28;20435;-56
2023/09/28 12:21:22;;;;;;;7.43;1.67;;;18.70;99.90;;;;;;5058459;28;20182;-53
2023/09/28 12:23:48;;;;;;;8.32;1.10;;;18.40;99.90;;;;;;5055203;28;20029;-57
2023/09/28 12:26:13;;;;;;;6.65;1.20;;;18.50;99.90;;;;;;5066963;28;20036;-57
2023/09/28 12:28:42;;;;;;;4.63;1.23;;;18.70;99.90;;;;;;5068441;28;20028;-52
2023/09/28 12:31:08;;;;;;;9.00;1.42;;;18.90;99.90;;;;;;5069817;28;20016;-55
2023/09/28 12:33:37;;;;;;;9.13;1.40;;;20.70;99.90;;;;;;5069543;28;20028;-51
2023/09/28 12:36:05;;;;;;;8.25;1.50;;;19.40;99.90;;;;;;5071453;28;20032;-57
2023/09/28 12:38:30;;;;;;;12.77;1.75;;;19.50;99.90;;;;;;5071723;28;20036;-59
2023/09/28 12:40:56;;;;;;;4.63;1.35;;;18.50;99.90;;;;;;5071201;28;20024;-56